sensor_id;sensor_type;location;lat;lon;timestamp;pressure;altitude;pressure_sealevel;temperature;humidity
19748;BME280;10032;51.386;12.516;2022-11-18T00:01:45;98557.03;;;6.14;100.00
19748;BME280;10032;51.386;12.516;2022-11-18T00:04:10;98552.25;;;6.21;100.00
19748;BME280;10032;51.386;12.516;2022-11-18T00:06:36;98551.13;;;6.17;100.00
19748;BME280;10032;51.386;12.516;2022-11-18T00:09:01;98542.53;;;6.15;100.00
19748;BME280;10032;51.386;12.516;2022-11-18T00:11:27;98553.28;;;6.15;100.00
19748;BME280;10032;51.386;12.516;2022-11-18T00:14:17;98554.06;;;6.16;100.00
19748;BME280;10032;51.386;12.516;2022-11-18T00:19:13;98558.66;;;6.15;100.00
19748;BME280;10032;51.386;12.516;2022-11-18T00:21:39;98550.31;;;6.17;100.00
19748;BME280;10032;51.386;12.516;2022-11-18T00:24:05;98554.31;;;6.14;100.00
19748;BME280;10032;51.386;12.516;2022-11-18T00:26:30;98571.03;;;6.16;100.00
19748;BME280;10032;51.386;12.516;2022-11-18T00:28:56;98568.59;;;6.15;100.00
19748;BME280;10032;51.386;12.516;2022-11-18T00:31:21;98570.75;;;6.13;100.00
19748;BME280;10032;51.386;12.516;2022-11-18T00:33:46;98568.84;;;6.13;100.00
19748;BME280;10032;51.386;12.516;2022-11-18T00:36:12;98566.44;;;6.17;100.00
19748;BME280;10032;51.386;12.516;2022-11-18T00:38:38;98573.16;;;6.14;100.00
19748;BME280;10032;51.386;12.516;2022-11-18T00:41:09;98562.97;;;6.16;100.00
19748;BME280;10032;51.386;12.516;2022-11-18T00:43:36;98550.81;;;6.09;100.00
19748;BME280;10032;51.386;12.516;2022-11-18T00:46:02;98557.53;;;6.06;100.00
19748;BME280;10032;51.386;12.516;2022-11-18T00:48:28;98559.09;;;6.02;100.00
19748;BME280;10032;51.386;12.516;2022-11-18T00:50:56;98553.97;;;6.01;100.00
19748;BME280;10032;51.386;12.516;2022-11-18T00:53:24;98559.63;;;5.99;100.00
19748;BME280;10032;51.386;12.516;2022-11-18T00:55:49;98570.41;;;6.04;100.00
19748;BME280;10032;51.386;12.516;2022-11-18T00:58:15;98575.81;;;6.09;100.00
19748;BME280;10032;51.386;12.516;2022-11-18T01:00:48;98580.94;;;6.11;100.00
19748;BME280;10032;51.386;12.516;2022-11-18T01:03:14;98576.88;;;6.08;100.00
19748;BME280;10032;51.386;12.516;2022-11-18T01:05:40;98578.53;;;6.14;100.00
19748;BME280;10032;51.386;12.516;2022-11-18T01:08:06;98572.63;;;6.17;100.00
19748;BME280;10032;51.386;12.516;2022-11-18T01:10:33;98580.41;;;6.14;100.00
19748;BME280;10032;51.386;12.516;2022-11-18T01:12:58;98583.03;;;6.04;100.00
19748;BME280;10032;51.386;12.516;2022-11-18T01:15:54;98573.38;;;6.03;100.00
19748;BME280;10032;51.386;12.516;2022-11-18T01:18:29;98572.50;;;5.97;100.00
19748;BME280;10032;51.386;12.516;2022-11-18T01:20:59;98570.38;;;5.99;100.00
19748;BME280;10032;51.386;12.516;2022-11-18T01:23:24;98574.41;;;5.97;100.00
19748;BME280;10032;51.386;12.516;2022-11-18T01:25:50;98573.31;;;5.98;100.00
19748;BME280;10032;51.386;12.516;2022-11-18T01:28:16;98578.13;;;5.96;100.00
19748;BME280;10032;51.386;12.516;2022-11-18T01:30:42;98577.88;;;5.97;100.00
19748;BME280;10032;51.386;12.516;2022-11-18T01:33:08;98567.38;;;5.96;100.00
19748;BME280;10032;51.386;12.516;2022-11-18T01:35:38;98570.59;;;5.93;100.00
19748;BME280;10032;51.386;12.516;2022-11-18T01:38:05;98571.16;;;5.95;100.00
19748;BME280;10032;51.386;12.516;2022-11-18T01:40:31;98564.44;;;5.97;100.00
19748;BME280;10032;51.386;12.516;2022-11-18T01:42:57;98564.44;;;5.97;100.00
19748;BME280;10032;51.386;12.516;2022-11-18T01:45:32;98549.69;;;6.00;100.00
19748;BME280;10032;51.386;12.516;2022-11-18T01:48:07;98550.47;;;5.95;100.00
19748;BME280;10032;51.386;12.516;2022-11-18T01:50:36;98551.59;;;6.04;100.00
19748;BME280;10032;51.386;12.516;2022-11-18T01:53:08;98552.44;;;6.10;100.00
19748;BME280;10032;51.386;12.516;2022-11-18T01:55:40;98557.56;;;6.11;100.00
19748;BME280;10032;51.386;12.516;2022-11-18T02:00:59;98562.88;;;6.01;100.00
19748;BME280;10032;51.386;12.516;2022-11-18T02:03:26;98561.28;;;6.05;100.00
19748;BME280;10032;51.386;12.516;2022-11-18T02:05:52;98562.31;;;5.99;100.00
19748;BME280;10032;51.386;12.516;2022-11-18T02:08:19;98562.88;;;6.01;100.00
19748;BME280;10032;51.386;12.516;2022-11-18T02:10:46;98577.13;;;6.07;100.00
19748;BME280;10032;51.386;12.516;2022-11-18T02:13:12;98568.03;;;6.08;100.00
19748;BME280;10032;51.386;12.516;2022-11-18T02:15:52;98574.72;;;6.05;100.00
19748;BME280;10032;51.386;12.516;2022-11-18T02:18:44;98568.81;;;6.08;100.00
19748;BME280;10032;51.386;12.516;2022-11-18T02:30:11;98560.97;;;5.97;100.00
19748;BME280;10032;51.386;12.516;2022-11-18T02:40:33;98567.06;;;5.87;100.00
19748;BME280;10032;51.386;12.516;2022-11-18T02:43:07;98570.81;;;5.86;100.00
19748;BME280;10032;51.386;12.516;2022-11-18T02:45:35;98574.56;;;5.85;100.00
19748;BME280;10032;51.386;12.516;2022-11-18T02:48:06;98570.53;;;5.83;100.00
19748;BME280;10032;51.386;12.516;2022-11-18T02:50:34;98568.59;;;5.78;100.00
19748;BME280;10032;51.386;12.516;2022-11-18T02:53:03;98570.72;;;5.76;100.00
19748;BME280;10032;51.386;12.516;2022-11-18T02:55:32;98573.94;;;5.73;100.00
19748;BME280;10032;51.386;12.516;2022-11-18T02:58:00;98568.28;;;5.75;100.00
19748;BME280;10032;51.386;12.516;2022-11-18T03:00:27;98569.38;;;5.79;100.00
19748;BME280;10032;51.386;12.516;2022-11-18T03:02:52;98563.22;;;5.78;100.00
19748;BME280;10032;51.386;12.516;2022-11-18T03:05:41;98576.16;;;5.81;100.00
19748;BME280;10032;51.386;12.516;2022-11-18T03:08:15;98581.78;;;5.80;100.00
19748;BME280;10032;51.386;12.516;2022-11-18T03:10:51;98587.97;;;5.80;100.00
19748;BME280;10032;51.386;12.516;2022-11-18T03:13:25;98587.16;;;5.80;100.00
19748;BME280;10032;51.386;12.516;2022-11-18T03:16:05;98589.50;;;5.76;100.00
19748;BME280;10032;51.386;12.516;2022-11-18T03:18:45;98595.63;;;5.67;100.00
19748;BME280;10032;51.386;12.516;2022-11-18T03:21:18;98594.31;;;5.69;100.00
19748;BME280;10032;51.386;12.516;2022-11-18T03:23:52;98608.75;;;5.63;100.00
19748;BME280;10032;51.386;12.516;2022-11-18T03:26:31;98604.97;;;5.59;100.00
19748;BME280;10032;51.386;12.516;2022-11-18T03:29:03;98609.25;;;5.60;100.00
19748;BME280;10032;51.386;12.516;2022-11-18T03:31:44;98617.06;;;5.62;100.00
19748;BME280;10032;51.386;12.516;2022-11-18T03:34:41;98615.66;;;5.54;100.00
19748;BME280;10032;51.386;12.516;2022-11-18T03:37:11;98622.91;;;5.54;100.00
19748;BME280;10032;51.386;12.516;2022-11-18T03:39:41;98625.91;;;5.57;100.00
19748;BME280;10032;51.386;12.516;2022-11-18T03:42:15;98625.38;;;5.60;100.00
19748;BME280;10032;51.386;12.516;2022-11-18T03:44:51;98632.31;;;5.56;100.00
19748;BME280;10032;51.386;12.516;2022-11-18T03:47:26;98628.25;;;5.54;100.00
19748;BME280;10032;51.386;12.516;2022-11-18T03:49:57;98636.56;;;5.47;100.00
19748;BME280;10032;51.386;12.516;2022-11-18T03:52:28;98634.88;;;5.41;100.00
19748;BME280;10032;51.386;12.516;2022-11-18T03:54:57;98646.06;;;5.33;100.00
19748;BME280;10032;51.386;12.516;2022-11-18T03:57:31;98652.75;;;5.31;100.00
19748;BME280;10032;51.386;12.516;2022-11-18T04:00:05;98656.19;;;5.26;100.00
19748;BME280;10032;51.386;12.516;2022-11-18T04:02:31;98652.75;;;5.31;100.00
19748;BME280;10032;51.386;12.516;2022-11-18T04:04:59;98657.81;;;5.27;100.00
19748;BME280;10032;51.386;12.516;2022-11-18T04:10:26;98650.25;;;5.24;100.00
19748;BME280;10032;51.386;12.516;2022-11-18T04:13:02;98643.50;;;5.22;100.00
19748;BME280;10032;51.386;12.516;2022-11-18T04:15:30;98642.97;;;5.20;100.00
19748;BME280;10032;51.386;12.516;2022-11-18T04:17:57;98643.50;;;5.22;100.00
19748;BME280;10032;51.386;12.516;2022-11-18T04:20:23;98651.31;;;5.23;100.00
19748;BME280;10032;51.386;12.516;2022-11-18T04:22:49;98639.50;;;5.24;100.00
19748;BME280;10032;51.386;12.516;2022-11-18T04:25:14;98652.56;;;5.16;100.00
19748;BME280;10032;51.386;12.516;2022-11-18T04:27:40;98652.22;;;5.07;100.00
19748;BME280;10032;51.386;12.516;2022-11-18T04:30:06;98658.72;;;5.11;100.00
19748;BME280;10032;51.386;12.516;2022-11-18T04:32:32;98662.22;;;5.12;100.00
19748;BME280;10032;51.386;12.516;2022-11-18T04:34:57;98658.09;;;5.04;100.00
19748;BME280;10032;51.386;12.516;2022-11-18T04:37:23;98663.97;;;5.01;100.00
19748;BME280;10032;51.386;12.516;2022-11-18T04:39:49;98655.47;;;4.88;100.00
19748;BME280;10032;51.386;12.516;2022-11-18T04:42:15;98647.25;;;4.94;100.00
19748;BME280;10032;51.386;12.516;2022-11-18T04:44:40;98649.41;;;4.97;100.00
19748;BME280;10032;51.386;12.516;2022-11-18T04:47:06;98666.09;;;4.99;100.00
19748;BME280;10032;51.386;12.516;2022-11-18T04:49:33;98662.66;;;5.04;100.00
19748;BME280;10032;51.386;12.516;2022-11-18T04:51:59;98670.63;;;4.99;100.00
19748;BME280;10032;51.386;12.516;2022-11-18T04:54:26;98671.63;;;4.93;100.00
19748;BME280;10032;51.386;12.516;2022-11-18T04:56:52;98672.06;;;4.85;100.00
19748;BME280;10032;51.386;12.516;2022-11-18T04:59:21;98670.06;;;4.75;100.00
19748;BME280;10032;51.386;12.516;2022-11-18T05:01:48;98669.81;;;4.77;100.00
19748;BME280;10032;51.386;12.516;2022-11-18T05:04:17;98688.91;;;4.80;100.00
19748;BME280;10032;51.386;12.516;2022-11-18T05:06:43;98688.00;;;4.75;100.00
19748;BME280;10032;51.386;12.516;2022-11-18T05:09:09;98691.75;;;4.74;100.00
19748;BME280;10032;51.386;12.516;2022-11-18T05:11:35;98687.78;;;4.76;100.00
19748;BME280;10032;51.386;12.516;2022-11-18T05:14:19;98690.28;;;4.83;100.00
19748;BME280;10032;51.386;12.516;2022-11-18T05:16:45;98687.84;;;4.81;100.00
19748;BME280;10032;51.386;12.516;2022-11-18T05:19:10;98691.84;;;4.79;100.00
19748;BME280;10032;51.386;12.516;2022-11-18T05:21:36;98686.97;;;4.76;100.00
19748;BME280;10032;51.386;12.516;2022-11-18T05:24:03;98689.38;;;4.77;100.00
19748;BME280;10032;51.386;12.516;2022-11-18T05:26:29;98689.47;;;4.82;100.00
19748;BME280;10032;51.386;12.516;2022-11-18T05:28:54;98693.34;;;4.70;100.00
19748;BME280;10032;51.386;12.516;2022-11-18T05:31:20;98706.47;;;4.71;100.00
19748;BME280;10032;51.386;12.516;2022-11-18T05:33:46;98711.84;;;4.71;100.00
19748;BME280;10032;51.386;12.516;2022-11-18T05:36:13;98718.50;;;4.69;100.00
19748;BME280;10032;51.386;12.516;2022-11-18T05:38:39;98728.53;;;4.73;100.00
19748;BME280;10032;51.386;12.516;2022-11-18T05:41:06;98735.06;;;4.82;100.00
19748;BME280;10032;51.386;12.516;2022-11-18T05:43:32;98730.69;;;4.76;100.00
19748;BME280;10032;51.386;12.516;2022-11-18T05:45:57;98746.84;;;4.81;100.00
19748;BME280;10032;51.386;12.516;2022-11-18T05:48:23;98743.56;;;4.74;100.00
19748;BME280;10032;51.386;12.516;2022-11-18T05:50:50;98741.84;;;4.68;100.00
19748;BME280;10032;51.386;12.516;2022-11-18T05:53:17;98743.88;;;4.61;100.00
19748;BME280;10032;51.386;12.516;2022-11-18T05:58:13;98747.63;;;4.60;100.00
19748;BME280;10032;51.386;12.516;2022-11-18T06:00:39;98755.19;;;4.63;100.00
19748;BME280;10032;51.386;12.516;2022-11-18T06:03:10;98752.19;;;4.60;100.00
19748;BME280;10032;51.386;12.516;2022-11-18T06:05:37;98762.00;;;4.54;100.00
19748;BME280;10032;51.386;12.516;2022-11-18T06:08:03;98762.66;;;4.61;100.00
19748;BME280;10032;51.386;12.516;2022-11-18T06:10:32;98761.03;;;4.60;100.00
19748;BME280;10032;51.386;12.516;2022-11-18T06:13:03;98765.00;;;4.58;100.00
19748;BME280;10032;51.386;12.516;2022-11-18T06:15:35;98760.16;;;4.55;100.00
19748;BME280;10032;51.386;12.516;2022-11-18T06:18:27;98762.84;;;4.38;100.00
19748;BME280;10032;51.386;12.516;2022-11-18T06:20:54;98773.56;;;4.38;100.00
19748;BME280;10032;51.386;12.516;2022-11-18T06:23:21;98774.94;;;4.41;100.00
19748;BME280;10032;51.386;12.516;2022-11-18T06:25:47;98777.94;;;4.44;100.00
19748;BME280;10032;51.386;12.516;2022-11-18T06:28:14;98777.94;;;4.44;100.00
19748;BME280;10032;51.386;12.516;2022-11-18T06:30:40;98776.00;;;4.40;100.00
19748;BME280;10032;51.386;12.516;2022-11-18T06:33:06;98777.53;;;4.36;100.00
19748;BME280;10032;51.386;12.516;2022-11-18T06:35:32;98787.53;;;4.40;100.00
19748;BME280;10032;51.386;12.516;2022-11-18T06:37:58;98798.19;;;4.35;100.00
19748;BME280;10032;51.386;12.516;2022-11-18T06:40:23;98796.53;;;4.34;100.00
19748;BME280;10032;51.386;12.516;2022-11-18T06:42:48;98811.50;;;4.30;100.00
19748;BME280;10032;51.386;12.516;2022-11-18T06:45:32;98814.56;;;4.22;100.00
19748;BME280;10032;51.386;12.516;2022-11-18T06:47:59;98807.09;;;4.24;100.00
19748;BME280;10032;51.386;12.516;2022-11-18T06:50:25;98811.97;;;4.27;100.00
19748;BME280;10032;51.386;12.516;2022-11-18T06:52:51;98819.94;;;4.22;100.00
19748;BME280;10032;51.386;12.516;2022-11-18T06:55:16;98814.38;;;4.12;100.00
19748;BME280;10032;51.386;12.516;2022-11-18T06:57:42;98818.44;;;4.15;100.00
19748;BME280;10032;51.386;12.516;2022-11-18T07:00:08;98825.09;;;4.12;100.00
19748;BME280;10032;51.386;12.516;2022-11-18T07:02:36;98825.44;;;4.16;100.00
19748;BME280;10032;51.386;12.516;2022-11-18T07:05:03;98821.63;;;4.12;100.00
19748;BME280;10032;51.386;12.516;2022-11-18T07:07:28;98820.25;;;4.09;100.00
19748;BME280;10032;51.386;12.516;2022-11-18T07:09:54;98820.06;;;3.99;100.00
19748;BME280;10032;51.386;12.516;2022-11-18T07:12:19;98830.50;;;4.01;100.00
19748;BME280;10032;51.386;12.516;2022-11-18T07:14:44;98831.72;;;3.93;100.00
19748;BME280;10032;51.386;12.516;2022-11-18T07:17:10;98834.97;;;3.95;100.00
19748;BME280;10032;51.386;12.516;2022-11-18T07:19:35;98830.78;;;3.99;100.00
19748;BME280;10032;51.386;12.516;2022-11-18T07:22:01;98831.91;;;4.03;100.00
19748;BME280;10032;51.386;12.516;2022-11-18T07:24:26;98845.38;;;4.08;100.00
19748;BME280;10032;51.386;12.516;2022-11-18T07:26:52;98842.06;;;4.01;100.00
19748;BME280;10032;51.386;12.516;2022-11-18T07:29:18;98844.59;;;4.08;100.00
19748;BME280;10032;51.386;12.516;2022-11-18T07:31:43;98849.63;;;4.04;100.00
19748;BME280;10032;51.386;12.516;2022-11-18T07:34:09;98852.63;;;4.08;100.00
19748;BME280;10032;51.386;12.516;2022-11-18T07:36:34;98857.75;;;4.09;100.00
19748;BME280;10032;51.386;12.516;2022-11-18T07:39:00;98857.66;;;4.04;100.00
19748;BME280;10032;51.386;12.516;2022-11-18T07:41:28;98859.50;;;4.04;100.00
19748;BME280;10032;51.386;12.516;2022-11-18T07:43:55;98884.72;;;3.91;100.00
19748;BME280;10032;51.386;12.516;2022-11-18T07:46:29;98868.34;;;3.76;100.00
19748;BME280;10032;51.386;12.516;2022-11-18T07:48:57;98871.94;;;3.82;100.00
19748;BME280;10032;51.386;12.516;2022-11-18T07:51:28;98873.09;;;3.86;100.00
19748;BME280;10032;51.386;12.516;2022-11-18T07:53:55;98876.00;;;3.84;100.00
19748;BME280;10032;51.386;12.516;2022-11-18T07:56:22;98872.28;;;3.85;100.00
19748;BME280;10032;51.386;12.516;2022-11-18T07:58:54;98886.72;;;3.84;100.00
19748;BME280;10032;51.386;12.516;2022-11-18T08:01:22;98880.09;;;3.75;100.00
19748;BME280;10032;51.386;12.516;2022-11-18T08:03:48;98879.53;;;3.73;100.00
19748;BME280;10032;51.386;12.516;2022-11-18T08:06:15;98891.31;;;3.72;100.00
19748;BME280;10032;51.386;12.516;2022-11-18T08:08:41;98885.69;;;3.74;100.00
19748;BME280;10032;51.386;12.516;2022-11-18T08:11:10;98891.78;;;3.58;100.00
19748;BME280;10032;51.386;12.516;2022-11-18T08:13:36;98893.66;;;3.57;100.00
19748;BME280;10032;51.386;12.516;2022-11-18T08:16:02;98895.84;;;3.60;100.00
19748;BME280;10032;51.386;12.516;2022-11-18T08:18:29;98908.78;;;3.52;100.00
19748;BME280;10032;51.386;12.516;2022-11-18T08:20:55;98910.56;;;3.46;100.00
19748;BME280;10032;51.386;12.516;2022-11-18T08:23:20;98911.25;;;3.53;100.00
19748;BME280;10032;51.386;12.516;2022-11-18T08:25:46;98913.81;;;3.48;100.00
19748;BME280;10032;51.386;12.516;2022-11-18T08:28:12;98919.16;;;3.48;100.00
19748;BME280;10032;51.386;12.516;2022-11-18T08:30:38;98918.47;;;3.41;100.00
19748;BME280;10032;51.386;12.516;2022-11-18T08:33:04;98928.59;;;3.39;100.00
19748;BME280;10032;51.386;12.516;2022-11-18T08:35:31;98924.50;;;3.37;100.00
19748;BME280;10032;51.386;12.516;2022-11-18T08:37:57;98930.47;;;3.39;100.00
19748;BME280;10032;51.386;12.516;2022-11-18T08:40:23;98929.28;;;3.35;100.00
19748;BME280;10032;51.386;12.516;2022-11-18T08:42:49;98930.22;;;3.29;100.00
19748;BME280;10032;51.386;12.516;2022-11-18T08:45:14;98939.06;;;3.29;100.00
19748;BME280;10032;51.386;12.516;2022-11-18T08:47:40;98946.41;;;3.22;100.00
19748;BME280;10032;51.386;12.516;2022-11-18T08:50:07;98951.06;;;3.15;100.00
19748;BME280;10032;51.386;12.516;2022-11-18T08:52:33;98956.19;;;3.17;100.00
19748;BME280;10032;51.386;12.516;2022-11-18T08:54:59;98961.28;;;3.07;100.00
19748;BME280;10032;51.386;12.516;2022-11-18T08:57:24;98962.88;;;2.96;100.00
19748;BME280;10032;51.386;12.516;2022-11-18T08:59:50;98952.41;;;2.83;100.00
19748;BME280;10032;51.386;12.516;2022-11-18T09:02:20;98961.34;;;2.77;100.00
19748;BME280;10032;51.386;12.516;2022-11-18T09:04:47;98959.94;;;2.75;100.00
19748;BME280;10032;51.386;12.516;2022-11-18T09:07:12;98954.34;;;2.76;100.00
19748;BME280;10032;51.386;12.516;2022-11-18T09:09:38;98961.09;;;2.67;100.00
19748;BME280;10032;51.386;12.516;2022-11-18T09:12:03;98960.25;;;2.67;100.00
19748;BME280;10032;51.386;12.516;2022-11-18T09:14:29;98964.56;;;2.68;100.00
19748;BME280;10032;51.386;12.516;2022-11-18T09:16:55;98973.47;;;2.62;100.00
19748;BME280;10032;51.386;12.516;2022-11-18T09:19:20;98972.00;;;2.66;100.00
19748;BME280;10032;51.386;12.516;2022-11-18T09:21:46;98982.41;;;2.56;100.00
19748;BME280;10032;51.386;12.516;2022-11-18T09:24:11;98987.75;;;2.56;100.00
19748;BME280;10032;51.386;12.516;2022-11-18T09:26:37;98985.94;;;2.38;100.00
19748;BME280;10032;51.386;12.516;2022-11-18T09:29:03;98991.22;;;2.45;100.00
19748;BME280;10032;51.386;12.516;2022-11-18T09:31:29;98998.19;;;2.46;100.00
19748;BME280;10032;51.386;12.516;2022-11-18T09:33:54;99008.94;;;2.39;100.00
19748;BME280;10032;51.386;12.516;2022-11-18T09:36:22;99012.22;;;2.41;100.00
19748;BME280;10032;51.386;12.516;2022-11-18T09:38:48;99015.47;;;2.43;100.00
19748;BME280;10032;51.386;12.516;2022-11-18T09:41:43;99023.34;;;2.38;100.00
19748;BME280;10032;51.386;12.516;2022-11-18T09:49:35;99029.16;;;2.35;100.00
19748;BME280;10032;51.386;12.516;2022-11-18T09:52:28;99034.03;;;2.38;100.00
19748;BME280;10032;51.386;12.516;2022-11-18T09:54:59;99027.22;;;2.42;100.00
19748;BME280;10032;51.386;12.516;2022-11-18T09:57:40;99027.44;;;2.41;100.00
19748;BME280;10032;51.386;12.516;2022-11-18T10:00:15;99039.75;;;2.42;100.00
19748;BME280;10032;51.386;12.516;2022-11-18T10:03:10;99030.44;;;2.33;100.00
19748;BME280;10032;51.386;12.516;2022-11-18T10:08:27;99044.00;;;2.31;100.00
19748;BME280;10032;51.386;12.516;2022-11-18T10:11:17;99035.78;;;2.33;100.00
19748;BME280;10032;51.386;12.516;2022-11-18T10:13:48;99044.28;;;2.23;100.00
19748;BME280;10032;51.386;12.516;2022-11-18T10:19:29;99052.84;;;2.14;100.00
19748;BME280;10032;51.386;12.516;2022-11-18T10:22:29;99059.59;;;2.16;100.00
19748;BME280;10032;51.386;12.516;2022-11-18T10:24:57;99062.84;;;2.18;100.00
19748;BME280;10032;51.386;12.516;2022-11-18T10:27:37;99063.81;;;2.06;100.00
19748;BME280;10032;51.386;12.516;2022-11-18T10:32:52;99061.16;;;2.06;100.00
19748;BME280;10032;51.386;12.516;2022-11-18T10:35:37;99073.25;;;2.08;100.00
19748;BME280;10032;51.386;12.516;2022-11-18T10:38:15;99071.00;;;2.05;100.00
19748;BME280;10032;51.386;12.516;2022-11-18T10:41:05;99082.81;;;2.16;100.00
19748;BME280;10032;51.386;12.516;2022-11-18T10:43:51;99087.34;;;2.15;100.00
19748;BME280;10032;51.386;12.516;2022-11-18T10:46:24;99089.41;;;2.13;100.00
19748;BME280;10032;51.386;12.516;2022-11-18T10:51:41;99095.66;;;2.25;100.00
19748;BME280;10032;51.386;12.516;2022-11-18T10:54:17;99102.31;;;2.34;100.00
19748;BME280;10032;51.386;12.516;2022-11-18T10:56:50;99106.50;;;2.30;100.00
19748;BME280;10032;51.386;12.516;2022-11-18T10:59:35;99105.31;;;2.26;100.00
19748;BME280;10032;51.386;12.516;2022-11-18T11:02:17;99111.91;;;2.24;100.00
19748;BME280;10032;51.386;12.516;2022-11-18T11:04:46;99107.81;;;2.21;100.00
19748;BME280;10032;51.386;12.516;2022-11-18T11:07:34;99114.47;;;2.12;100.00
19748;BME280;10032;51.386;12.516;2022-11-18T11:12:34;99120.28;;;2.09;100.00
19748;BME280;10032;51.386;12.516;2022-11-18T11:15:16;99125.25;;;2.06;100.00
19748;BME280;10032;51.386;12.516;2022-11-18T11:17:53;99121.69;;;2.12;100.00
19748;BME280;10032;51.386;12.516;2022-11-18T11:20:39;99125.47;;;2.22;100.00
19748;BME280;10032;51.386;12.516;2022-11-18T11:23:12;99130.44;;;2.19;100.00
19748;BME280;10032;51.386;12.516;2022-11-18T11:26:00;99133.44;;;2.29;100.00
19748;BME280;10032;51.386;12.516;2022-11-18T11:28:36;99140.47;;;2.23;100.00
19748;BME280;10032;51.386;12.516;2022-11-18T11:31:28;99133.66;;;2.27;100.00
19748;BME280;10032;51.386;12.516;2022-11-18T11:50:27;99145.50;;;2.13;100.00
19748;BME280;10032;51.386;12.516;2022-11-18T12:06:45;99154.56;;;2.12;100.00
19748;BME280;10032;51.386;12.516;2022-11-18T12:14:54;99166.13;;;2.06;100.00
19748;BME280;10032;51.386;12.516;2022-11-18T12:17:38;99173.09;;;2.07;100.00
19748;BME280;10032;51.386;12.516;2022-11-18T12:28:33;99176.38;;;1.85;100.00
19748;BME280;10032;51.386;12.516;2022-11-18T12:33:48;99176.22;;;1.80;100.00
19748;BME280;10032;51.386;12.516;2022-11-18T12:42:03;99190.53;;;1.85;100.00
19748;BME280;10032;51.386;12.516;2022-11-18T12:44:49;99193.59;;;1.89;100.00
19748;BME280;10032;51.386;12.516;2022-11-18T12:50:12;99200.00;;;1.81;100.00
19748;BME280;10032;51.386;12.516;2022-11-18T12:55:12;99211.84;;;1.67;100.00
19748;BME280;10032;51.386;12.516;2022-11-18T12:57:39;99220.25;;;1.64;100.00
19748;BME280;10032;51.386;12.516;2022-11-18T13:02:58;99224.34;;;1.67;100.00
19748;BME280;10032;51.386;12.516;2022-11-18T13:05:28;99232.81;;;1.64;100.00
19748;BME280;10032;51.386;12.516;2022-11-18T13:08:10;99227.06;;;1.60;100.00
19748;BME280;10032;51.386;12.516;2022-11-18T13:10:48;99227.31;;;1.52;100.00
19748;BME280;10032;51.386;12.516;2022-11-18T13:13:29;99229.53;;;1.55;100.00
19748;BME280;10032;51.386;12.516;2022-11-18T13:16:01;99232.38;;;1.60;100.00
19748;BME280;10032;51.386;12.516;2022-11-18T13:18:51;99231.63;;;1.53;100.00
19748;BME280;10032;51.386;12.516;2022-11-18T13:21:25;99229.53;;;1.55;100.00
19748;BME280;10032;51.386;12.516;2022-11-18T13:24:14;99237.72;;;1.60;100.00
19748;BME280;10032;51.386;12.516;2022-11-18T13:26:43;99239.84;;;1.52;100.00
19748;BME280;10032;51.386;12.516;2022-11-18T13:29:23;99250.97;;;1.42;100.00
19748;BME280;10032;51.386;12.516;2022-11-18T13:32:22;99248.16;;;1.31;100.00
19748;BME280;10032;51.386;12.516;2022-11-18T13:34:50;99255.34;;;1.30;100.00
19748;BME280;10032;51.386;12.516;2022-11-18T13:37:22;99256.81;;;1.26;100.00
19748;BME280;10032;51.386;12.516;2022-11-18T13:39:48;99259.47;;;1.26;100.00
19748;BME280;10032;51.386;12.516;2022-11-18T13:42:23;99258.88;;;1.24;100.00
19748;BME280;10032;51.386;12.516;2022-11-18T13:45:00;99264.03;;;1.19;100.00
19748;BME280;10032;51.386;12.516;2022-11-18T13:50:03;99265.47;;;1.15;100.00
19748;BME280;10032;51.386;12.516;2022-11-18T13:55:02;99285.13;;;1.21;100.00
19748;BME280;10032;51.386;12.516;2022-11-18T13:57:32;99277.78;;;1.16;100.00
19748;BME280;10032;51.386;12.516;2022-11-18T14:00:03;99287.44;;;1.11;100.00
19748;BME280;10032;51.386;12.516;2022-11-18T14:02:29;99292.78;;;1.04;100.00
19748;BME280;10032;51.386;12.516;2022-11-18T14:04:57;99295.47;;;0.91;100.00
19748;BME280;10032;51.386;12.516;2022-11-18T14:07:27;99291.97;;;0.97;100.00
19748;BME280;10032;51.386;12.516;2022-11-18T14:10:03;99310.03;;;0.95;100.00
19748;BME280;10032;51.386;12.516;2022-11-18T14:12:31;99300.81;;;0.91;100.00
19748;BME280;10032;51.386;12.516;2022-11-18T14:17:54;99301.66;;;0.85;100.00
19748;BME280;10032;51.386;12.516;2022-11-18T14:20:20;99304.13;;;0.80;100.00
19748;BME280;10032;51.386;12.516;2022-11-18T14:22:49;99316.00;;;0.84;100.00
19748;BME280;10032;51.386;12.516;2022-11-18T14:27:44;99318.88;;;0.96;100.00
19748;BME280;10032;51.386;12.516;2022-11-18T14:30:34;99315.75;;;0.99;100.00
19748;BME280;10032;51.386;12.516;2022-11-18T14:35:38;99330.13;;;1.04;100.00
19748;BME280;10032;51.386;12.516;2022-11-18T14:41:00;99340.34;;;1.07;100.00
19748;BME280;10032;51.386;12.516;2022-11-18T14:43:26;99349.59;;;1.11;100.00
19748;BME280;10032;51.386;12.516;2022-11-18T14:45:56;99353.28;;;1.17;100.00
19748;BME280;10032;51.386;12.516;2022-11-18T14:48:24;99353.66;;;1.20;100.00
19748;BME280;10032;51.386;12.516;2022-11-18T14:50:50;99353.66;;;1.20;100.00
19748;BME280;10032;51.386;12.516;2022-11-18T14:53:17;99361.69;;;1.20;100.00
19748;BME280;10032;51.386;12.516;2022-11-18T14:55:43;99370.06;;;1.17;100.00
19748;BME280;10032;51.386;12.516;2022-11-18T14:58:13;99366.81;;;1.15;100.00
19748;BME280;10032;51.386;12.516;2022-11-18T15:00:40;99371.31;;;1.15;100.00
19748;BME280;10032;51.386;12.516;2022-11-18T15:03:06;99367.84;;;1.08;100.00
19748;BME280;10032;51.386;12.516;2022-11-18T15:05:32;99379.16;;;1.03;100.00
19748;BME280;10032;51.386;12.516;2022-11-18T15:07:57;99380.78;;;0.91;100.00
19748;BME280;10032;51.386;12.516;2022-11-18T15:10:22;99382.63;;;0.97;100.00